Terminal Aerodrome Forecast
Issued by NWS Jackson, KY

Home | Current Version | Previous Version | Text Only | Print | Product List | Glossary On
Versions: 1 2 3 4 5 6 7 8 9 10 11 12 13 14 15 16 17 18 19
504
FTUS43 KJKL 181743
TAFJKL
TAF
KJKL 181743Z 1818/1918 21013G25KT P6SM VCSH OVC035
     FM182100 20015G35KT P6SM VCSH OVC025
     FM182300 22015G35KT 3SM SHRA VCTS OVC025CB
     FM190300 28012G20KT 4SM -RA BR OVC015
     FM190600 28008KT P6SM VCSH OVC015
     FM191200 27008KT P6SM OVC015=

USA.gov is the U.S. government's official web portal to all federal, state and local government web resources and services.